createdAt,value
2019-05-10T00:02:38.987Z,12.04
2019-05-10T00:06:02.094Z,11.98
2019-05-10T00:09:06.688Z,11.90
2019-05-10T00:12:26.104Z,11.90
2019-05-10T00:15:32.826Z,11.84
2019-05-10T00:18:37.787Z,11.77
2019-05-10T00:21:43.177Z,11.71
2019-05-10T00:25:01.986Z,11.78
2019-05-10T00:27:55.928Z,11.74
2019-05-10T00:31:00.750Z,11.76
2019-05-10T00:34:05.864Z,11.70
2019-05-10T00:37:10.890Z,11.69
2019-05-10T00:40:15.725Z,11.70
2019-05-10T00:43:20.746Z,11.66
2019-05-10T00:46:25.883Z,11.70
2019-05-10T00:49:31.700Z,11.65
2019-05-10T00:52:36.492Z,11.65
2019-05-10T00:55:41.413Z,11.62
2019-05-10T00:58:46.562Z,11.67
2019-05-10T01:01:51.319Z,11.64
2019-05-10T01:04:56.462Z,11.64
2019-05-10T01:08:01.720Z,11.59
2019-05-10T01:11:06.977Z,11.59
2019-05-10T01:14:11.741Z,11.56
2019-05-10T01:17:16.524Z,11.62
2019-05-10T01:20:21.529Z,11.67
2019-05-10T01:23:26.608Z,11.71
2019-05-10T01:26:31.882Z,11.66
2019-05-10T01:29:36.660Z,11.65
2019-05-10T01:32:41.661Z,11.60
2019-05-10T01:35:46.766Z,11.65
2019-05-10T01:38:51.607Z,11.61
2019-05-10T01:41:56.561Z,11.61
2019-05-10T01:45:01.424Z,11.69
2019-05-10T01:48:06.234Z,11.72
2019-05-10T01:51:11.023Z,11.67
2019-05-10T01:54:15.836Z,11.65
2019-05-10T01:57:20.689Z,11.65
2019-05-10T02:00:25.649Z,11.67
2019-05-10T02:03:30.517Z,11.68
2019-05-10T02:06:36.660Z,11.70
2019-05-10T02:09:41.763Z,11.73
2019-05-10T02:12:46.958Z,11.70
2019-05-10T02:15:52.095Z,11.67
2019-05-10T02:18:57.492Z,11.55
2019-05-10T02:22:02.599Z,11.51
2019-05-10T02:25:07.645Z,11.56
2019-05-10T02:28:12.536Z,11.56
2019-05-10T02:31:21.477Z,11.57
2019-05-10T02:34:23.972Z,11.59
2019-05-10T02:37:29.048Z,11.59
2019-05-10T02:40:34.294Z,11.52
2019-05-10T02:43:42.273Z,11.44
2019-05-10T02:46:47.035Z,11.43
2019-05-10T02:49:52.115Z,11.45
2019-05-10T02:52:57.453Z,11.45
2019-05-10T02:56:04.071Z,11.47
2019-05-10T02:59:12.627Z,11.37
2019-05-10T03:02:18.606Z,11.34
2019-05-10T03:05:27.164Z,11.39
2019-05-10T03:08:47.440Z,11.33
2019-05-10T03:11:53.383Z,11.31
2019-05-10T03:14:59.033Z,11.30
2019-05-10T03:18:04.470Z,11.29
2019-05-10T03:21:12.072Z,11.24
2019-05-10T03:24:17.177Z,11.13
2019-05-10T03:27:22.635Z,11.08
2019-05-10T03:30:27.710Z,11.09
2019-05-10T03:33:32.528Z,11.05
2019-05-10T03:36:37.756Z,11.04
2019-05-10T03:39:43.371Z,11.10
2019-05-10T03:42:49.073Z,11.10
2019-05-10T03:45:54.227Z,11.14
2019-05-10T03:48:59.045Z,11.11
2019-05-10T03:52:04.999Z,11.02
2019-05-10T03:55:09.995Z,10.91
2019-05-10T03:58:14.849Z,10.83
2019-05-10T04:01:19.697Z,10.82
2019-05-10T04:04:27.916Z,10.80
2019-05-10T04:07:32.722Z,10.75
2019-05-10T04:10:39.246Z,10.74
2019-05-10T04:13:44.278Z,10.72
2019-05-10T04:16:49.044Z,10.69
2019-05-10T04:19:54.244Z,10.72
2019-05-10T04:22:59.773Z,10.72
2019-05-10T04:26:05.513Z,10.75
2019-05-10T04:29:11.592Z,10.75
2019-05-10T04:32:16.458Z,10.70
2019-05-10T04:35:21.680Z,10.69
2019-05-10T04:38:26.461Z,10.71
2019-05-10T04:41:31.582Z,10.74
2019-05-10T04:44:36.488Z,10.74
2019-05-10T04:47:41.242Z,10.78
2019-05-10T04:50:49.068Z,10.77
2019-05-10T04:53:53.793Z,10.77
2019-05-10T04:57:00.207Z,10.78
2019-05-10T05:00:07.398Z,10.80
2019-05-10T05:03:12.197Z,10.79
2019-05-10T05:06:17.038Z,10.81
2019-05-10T05:09:22.389Z,10.83
2019-05-10T05:12:27.229Z,10.92
2019-05-10T05:15:32.028Z,11.06
2019-05-10T05:18:36.866Z,11.26
2019-05-10T05:21:41.684Z,11.35
2019-05-10T05:24:46.456Z,11.52
2019-05-10T05:28:06.810Z,11.63
2019-05-10T05:30:58.037Z,11.74
2019-05-10T05:34:04.941Z,11.79
2019-05-10T05:37:09.791Z,11.78
2019-05-10T05:40:14.819Z,11.79
2019-05-10T05:43:19.734Z,11.77
2019-05-10T05:46:25.270Z,11.82
2019-05-10T05:49:30.390Z,11.87
2019-05-10T05:52:35.176Z,12.16
2019-05-10T05:55:41.547Z,12.27
2019-05-10T05:58:47.530Z,12.41
2019-05-10T06:01:52.334Z,12.48
2019-05-10T06:04:57.241Z,12.35
2019-05-10T06:08:02.970Z,12.31
2019-05-10T06:11:09.228Z,12.25
2019-05-10T06:14:15.056Z,12.17
2019-05-10T06:17:23.695Z,12.07
2019-05-10T06:20:26.981Z,12.01
2019-05-10T06:23:35.340Z,12.04
2019-05-10T06:26:38.910Z,12.04
2019-05-10T06:29:44.027Z,12.10
2019-05-10T06:32:53.460Z,12.14
2019-05-10T06:35:55.689Z,12.05
2019-05-10T06:39:01.150Z,12.15
2019-05-10T06:42:06.168Z,12.23
2019-05-10T06:45:14.694Z,12.34
2019-05-10T06:48:26.017Z,12.46
2019-05-10T06:51:24.940Z,12.46
2019-05-10T06:54:29.739Z,12.40
2019-05-10T06:57:34.716Z,12.42
2019-05-10T07:00:44.633Z,12.54
2019-05-10T07:03:46.373Z,12.46
2019-05-10T07:06:52.736Z,12.56
2019-05-10T07:10:10.088Z,12.69
2019-05-10T07:13:06.714Z,12.92
2019-05-10T07:16:14.957Z,13.03
2019-05-10T07:19:18.307Z,13.07
2019-05-10T07:22:27.262Z,13.09
2019-05-10T07:25:30.981Z,13.16
2019-05-10T07:28:36.827Z,13.17
2019-05-10T07:31:41.783Z,13.42
2019-05-10T07:34:48.894Z,13.33
2019-05-10T07:37:53.793Z,13.08
2019-05-10T07:40:58.653Z,13.18
2019-05-10T07:44:07.806Z,13.16
2019-05-10T07:47:09.962Z,13.17
2019-05-10T07:50:15.020Z,13.31
2019-05-10T07:53:22.901Z,13.37
2019-05-10T07:56:26.394Z,13.31
2019-05-10T07:59:41.982Z,13.36
2019-05-10T08:02:38.127Z,13.38
2019-05-10T08:05:46.436Z,13.60
2019-05-10T08:08:49.907Z,13.44
2019-05-10T08:12:03.218Z,13.38
2019-05-10T08:15:01.853Z,13.39
2019-05-10T08:18:09.635Z,13.37
2019-05-10T08:21:21.687Z,13.45
2019-05-10T08:24:22.165Z,13.35
2019-05-10T08:27:27.277Z,13.36
2019-05-10T08:30:42.536Z,13.37
2019-05-10T08:33:53.686Z,13.40
2019-05-10T08:36:51.977Z,13.49
2019-05-10T08:39:57.890Z,13.64
2019-05-10T08:43:07.179Z,13.62
2019-05-10T08:46:11.783Z,13.78
2019-05-10T08:49:22.018Z,13.97
2019-05-10T08:52:26.848Z,14.10
2019-05-10T08:55:28.963Z,14.21
2019-05-10T08:58:37.176Z,14.39
2019-05-10T09:01:46.549Z,14.61
2019-05-10T09:04:50.167Z,14.80
2019-05-10T09:07:56.810Z,14.81
2019-05-10T09:11:06.476Z,15.20
2019-05-10T09:14:12.361Z,15.39
2019-05-10T09:17:26.700Z,15.67
2019-05-10T09:20:26.356Z,15.88
2019-05-10T09:23:29.124Z,16.04
2019-05-10T09:26:34.304Z,15.71
2019-05-10T09:29:39.366Z,15.50
2019-05-10T09:32:44.276Z,15.16
2019-05-10T09:35:52.357Z,14.95
2019-05-10T09:38:56.474Z,14.88
2019-05-10T09:42:07.653Z,14.93
2019-05-10T09:45:09.771Z,14.93
2019-05-10T09:48:15.075Z,15.00
2019-05-10T09:51:28.004Z,15.36
2019-05-10T09:54:29.548Z,15.61
2019-05-10T09:57:33.469Z,15.94
2019-05-10T10:00:38.361Z,16.38
2019-05-10T10:03:44.933Z,16.67
2019-05-10T10:06:52.667Z,16.71
2019-05-10T10:09:57.061Z,16.48
2019-05-10T10:13:08.482Z,16.18
2019-05-10T10:16:12.629Z,15.86
2019-05-10T10:19:17.306Z,15.62
2019-05-10T10:22:21.580Z,15.47
2019-05-10T10:25:30.085Z,15.47
2019-05-10T10:28:37.320Z,14.99
2019-05-10T10:31:51.528Z,15.13
2019-05-10T10:34:52.521Z,15.27
2019-05-10T10:37:57.466Z,15.35
2019-05-10T10:41:01.505Z,15.51
2019-05-10T10:44:08.409Z,15.87
2019-05-10T10:47:13.179Z,16.28
2019-05-10T10:50:18.772Z,16.90
2019-05-10T10:53:23.560Z,16.71
2019-05-10T10:56:28.752Z,16.51
2019-05-10T10:59:33.793Z,16.30
2019-05-10T11:02:41.490Z,15.96
2019-05-10T11:05:45.582Z,15.42
2019-05-10T11:08:51.853Z,15.17
2019-05-10T11:11:58.036Z,15.00
2019-05-10T11:15:02.996Z,15.09
2019-05-10T11:18:07.950Z,15.17
2019-05-10T11:21:13.013Z,15.23
2019-05-10T11:24:20.137Z,15.01
2019-05-10T11:27:24.313Z,14.80
2019-05-10T11:30:29.353Z,14.62
2019-05-10T11:33:34.897Z,14.27
2019-05-10T11:36:40.450Z,13.98
2019-05-10T11:39:47.140Z,13.89
2019-05-10T11:42:51.987Z,13.87
2019-05-10T11:45:56.733Z,13.34
2019-05-10T11:49:01.897Z,12.99
2019-05-10T11:52:10.079Z,12.98
2019-05-10T11:55:13.846Z,13.05
2019-05-10T11:58:18.946Z,13.16
2019-05-10T12:01:23.753Z,13.41
2019-05-10T12:04:38.233Z,13.77
2019-05-10T12:07:45.405Z,14.07
2019-05-10T12:10:52.414Z,14.35
2019-05-10T12:13:56.879Z,14.64
2019-05-10T12:16:55.869Z,14.95
2019-05-10T12:20:02.495Z,15.29
2019-05-10T12:23:13.218Z,15.66
2019-05-10T12:29:21.322Z,16.00
2019-05-10T12:32:27.069Z,16.07
2019-05-10T12:35:39.894Z,15.85
2019-05-10T12:38:40.955Z,16.35
2019-05-10T12:41:49.800Z,16.35
2019-05-10T12:44:55.991Z,16.63
2019-05-10T12:48:01.301Z,16.94
2019-05-10T12:51:11.456Z,16.81
2019-05-10T12:54:13.327Z,17.07
2019-05-10T12:57:18.437Z,17.21
2019-05-10T13:00:23.469Z,17.55
2019-05-10T13:03:31.683Z,17.84
2019-05-10T13:06:36.057Z,17.94
2019-05-10T13:09:41.790Z,17.71
2019-05-10T13:12:47.390Z,17.43
2019-05-10T13:15:52.444Z,17.19
2019-05-10T13:18:57.218Z,16.74
2019-05-10T13:22:01.954Z,16.74
2019-05-10T13:25:07.106Z,16.38
2019-05-10T13:28:12.247Z,16.27
2019-05-10T13:31:17.470Z,16.29
2019-05-10T13:34:24.268Z,16.26
2019-05-10T13:37:28.696Z,16.26
2019-05-10T13:40:39.194Z,16.17
2019-05-10T13:43:40.964Z,16.88
2019-05-10T13:46:45.735Z,16.88
2019-05-10T13:49:50.988Z,16.93
2019-05-10T13:52:56.786Z,16.93
2019-05-10T13:56:01.817Z,16.76
2019-05-10T13:59:15.331Z,16.99
2019-05-10T14:02:13.397Z,16.99
2019-05-10T14:05:19.988Z,17.01
2019-05-10T14:08:25.183Z,16.94
2019-05-10T14:11:34.118Z,17.03
2019-05-10T14:14:36.394Z,17.31
2019-05-10T14:17:41.156Z,17.28
2019-05-10T14:20:45.979Z,17.21
2019-05-10T14:23:51.408Z,17.04
2019-05-10T14:26:59.185Z,17.05
2019-05-10T14:30:10.801Z,16.80
2019-05-10T14:33:14.792Z,16.88
2019-05-10T14:36:17.139Z,16.57
2019-05-10T14:39:22.250Z,16.44
2019-05-10T14:42:31.382Z,16.48
2019-05-10T14:45:34.512Z,16.42
2019-05-10T14:48:39.554Z,16.38
2019-05-10T14:51:58.587Z,16.36
2019-05-10T14:54:55.394Z,16.49
2019-05-10T14:57:57.706Z,16.63
2019-05-10T15:01:02.458Z,16.73
2019-05-10T15:04:07.224Z,16.72
2019-05-10T15:07:14.375Z,16.84
2019-05-10T15:10:18.579Z,17.00
2019-05-10T15:13:26.036Z,17.08
2019-05-10T15:16:30.847Z,17.07
2019-05-10T15:19:36.330Z,17.16
2019-05-10T15:22:41.509Z,17.18
2019-05-10T15:25:56.389Z,17.03
2019-05-10T15:28:52.807Z,16.91
2019-05-10T15:31:57.664Z,16.94
2019-05-10T15:35:06.884Z,16.94
2019-05-10T15:38:10.832Z,16.91
2019-05-10T15:41:16.889Z,16.88
2019-05-10T15:44:30.237Z,16.94
2019-05-10T15:47:28.982Z,17.03
2019-05-10T15:50:38.621Z,17.11
2019-05-10T15:53:40.691Z,17.10
2019-05-10T15:56:45.480Z,17.07
2019-05-10T15:59:55.860Z,17.24
2019-05-10T16:02:56.913Z,17.23
2019-05-10T16:06:02.143Z,17.26
2019-05-10T16:09:16.872Z,17.17
2019-05-10T16:12:14.603Z,17.06
2019-05-10T16:15:21.270Z,17.13
2019-05-10T16:18:26.145Z,17.15
2019-05-10T16:21:31.173Z,17.37
2019-05-10T16:24:37.132Z,17.43
2019-05-10T16:27:45.046Z,17.32
2019-05-10T16:30:49.165Z,17.21
2019-05-10T16:33:55.736Z,17.16
2019-05-10T16:37:01.543Z,17.09
2019-05-10T16:40:06.898Z,17.12
2019-05-10T16:43:13.408Z,17.14
2019-05-10T16:46:18.633Z,17.28
2019-05-10T16:49:23.660Z,17.29
2019-05-10T16:52:28.756Z,17.43
2019-05-10T16:55:35.557Z,17.48
2019-05-10T16:58:40.565Z,17.19
2019-05-10T17:01:45.693Z,17.12
2019-05-10T17:04:50.916Z,17.11
2019-05-10T17:07:58.779Z,17.13
2019-05-10T17:11:09.395Z,17.13
2019-05-10T17:14:12.692Z,17.11
2019-05-10T17:17:15.868Z,17.04
2019-05-10T17:20:20.885Z,17.14
2019-05-10T17:23:26.162Z,17.24
2019-05-10T17:26:32.948Z,17.40
2019-05-10T17:29:38.049Z,17.46
2019-05-10T17:32:42.910Z,17.45
2019-05-10T17:35:47.803Z,17.39
2019-05-10T17:38:54.355Z,17.19
2019-05-10T17:42:03.067Z,17.11
2019-05-10T17:45:07.698Z,17.00
2019-05-10T17:48:12.563Z,17.03
2019-05-10T17:51:17.389Z,17.13
2019-05-10T17:54:22.208Z,17.15
2019-05-10T17:57:28.589Z,17.21
2019-05-10T18:00:33.881Z,17.08
2019-05-10T18:03:38.672Z,17.00
2019-05-10T18:06:43.458Z,16.97
2019-05-10T18:09:48.647Z,16.83
2019-05-10T18:12:57.297Z,16.69
2019-05-10T18:16:04.479Z,16.61
2019-05-10T18:19:07.003Z,16.58
2019-05-10T18:22:12.183Z,16.56
2019-05-10T18:25:20.615Z,16.42
2019-05-10T18:28:23.736Z,16.40
2019-05-10T18:31:28.540Z,16.38
2019-05-10T18:34:35.400Z,16.33
2019-05-10T18:37:39.881Z,16.30
2019-05-10T18:40:44.955Z,16.27
2019-05-10T18:43:50.073Z,16.20
2019-05-10T18:46:55.110Z,16.11
2019-05-10T18:50:00.192Z,16.02
2019-05-10T18:53:05.001Z,15.92
2019-05-10T18:56:10.392Z,15.78
2019-05-10T18:59:15.492Z,15.66
2019-05-10T19:02:20.512Z,15.42
2019-05-10T19:05:31.457Z,15.36
2019-05-10T19:08:32.252Z,15.33
2019-05-10T19:11:39.136Z,15.25
2019-05-10T19:14:43.862Z,15.15
2019-05-10T19:17:49.673Z,15.11
2019-05-10T19:20:55.284Z,15.08
2019-05-10T19:24:00.092Z,14.93
2019-05-10T19:27:07.205Z,14.93
2019-05-10T19:30:13.132Z,14.86
2019-05-10T19:33:18.315Z,14.86
2019-05-10T19:36:23.244Z,14.89
2019-05-10T19:39:28.301Z,14.91
2019-05-10T19:42:37.057Z,14.88
2019-05-10T19:45:39.799Z,14.86
2019-05-10T19:48:44.658Z,14.73
2019-05-10T19:51:50.438Z,14.67
2019-05-10T19:54:55.341Z,14.64
2019-05-10T19:58:00.078Z,14.70
2019-05-10T20:01:04.929Z,14.66
2019-05-10T20:04:09.682Z,14.70
2019-05-10T20:07:14.787Z,14.66
2019-05-10T20:10:19.694Z,14.64
2019-05-10T20:13:26.154Z,14.66
2019-05-10T20:16:31.251Z,14.66
2019-05-10T20:19:36.296Z,14.64
2019-05-10T20:22:41.124Z,14.61
2019-05-10T20:25:46.323Z,14.67
2019-05-10T20:28:51.092Z,14.66
2019-05-10T20:31:56.878Z,14.66
2019-05-10T20:35:02.778Z,14.67
2019-05-10T20:38:07.788Z,14.62
2019-05-10T20:41:12.553Z,14.61
2019-05-10T20:44:18.317Z,14.55
2019-05-10T20:47:24.322Z,14.55
2019-05-10T20:50:29.267Z,14.41
2019-05-10T20:53:34.024Z,14.41
2019-05-10T20:56:38.800Z,14.29
2019-05-10T20:59:43.983Z,14.18
2019-05-10T21:02:48.752Z,14.17
2019-05-10T21:05:53.569Z,14.14
2019-05-10T21:08:58.430Z,14.08
2019-05-10T21:12:04.538Z,14.08
2019-05-10T21:15:09.751Z,14.11
2019-05-10T21:18:14.511Z,14.06
2019-05-10T21:21:19.527Z,13.99
2019-05-10T21:24:24.395Z,13.99
2019-05-10T21:27:29.558Z,14.05
2019-05-10T21:30:34.341Z,14.08
2019-05-10T21:33:39.120Z,14.07
2019-05-10T21:36:44.150Z,14.05
2019-05-10T21:39:48.991Z,14.07
2019-05-10T21:42:53.717Z,14.04
2019-05-10T21:45:58.524Z,14.03
2019-05-10T21:49:03.285Z,14.02
2019-05-10T21:52:08.169Z,14.02
2019-05-10T21:55:13.116Z,14.09
2019-05-10T21:58:18.133Z,13.86
2019-05-10T22:01:23.553Z,13.86
2019-05-10T22:04:28.354Z,13.86
2019-05-10T22:07:33.556Z,13.83
2019-05-10T22:10:38.424Z,13.82
2019-05-10T22:13:43.973Z,13.84
2019-05-10T22:16:48.731Z,13.85
2019-05-10T22:19:53.719Z,13.79
2019-05-10T22:22:58.812Z,13.81
2019-05-10T22:26:03.936Z,13.80
2019-05-10T22:29:08.998Z,13.81
2019-05-10T22:32:13.729Z,13.74
2019-05-10T22:35:18.500Z,13.68
2019-05-10T22:38:23.572Z,13.65
2019-05-10T22:41:28.997Z,13.62
2019-05-10T22:44:33.744Z,13.59
2019-05-10T22:47:38.510Z,13.61
2019-05-10T22:50:43.279Z,13.47
2019-05-10T22:53:59.011Z,13.41
2019-05-10T22:56:55.140Z,13.43
2019-05-10T23:00:00.218Z,13.42
2019-05-10T23:03:05.526Z,13.38
2019-05-10T23:06:10.319Z,13.30
2019-05-10T23:09:24.011Z,13.23
2019-05-10T23:12:21.837Z,13.19
2019-05-10T23:15:26.689Z,13.08
2019-05-10T23:18:31.452Z,13.03
2019-05-10T23:21:36.651Z,12.98
2019-05-10T23:24:41.742Z,12.90
2019-05-10T23:27:46.485Z,12.85
2019-05-10T23:30:51.456Z,12.89
2019-05-10T23:33:56.592Z,12.82
2019-05-10T23:37:01.479Z,12.83
2019-05-10T23:40:06.342Z,12.83
2019-05-10T23:43:11.175Z,12.89
2019-05-10T23:46:16.239Z,12.91
2019-05-10T23:49:21.043Z,12.93
2019-05-10T23:52:26.369Z,12.96
2019-05-10T23:55:31.462Z,12.88
2019-05-10T23:58:36.219Z,12.88
